Time;durP1;ratioP1;P1;durP2;ratioP2;P2;SDS_P1;SDS_P2;PMS_P1;PMS_P2;Temp;Humidity;BMP_temperature;BMP_pressure;BME280_temperature;BME280_humidity;BME280_pressure;Samples;Min_cycle;Max_cycle;Signal;HPM_P1;HPM_P2
2024/03/02 00:00:22;;;;;;;46.00;23.13;;;9.60;99.90;;;;;;4995214;28;20773;-76
2024/03/02 00:02:49;;;;;;;44.92;21.13;;;9.70;99.90;;;;;;4994244;28;20037;-75
2024/03/02 00:05:21;;;;;;;32.53;17.63;;;9.70;99.90;;;;;;4992771;28;20026;-75
2024/03/02 00:07:54;;;;;;;32.42;17.38;;;9.70;99.90;;;;;;4993704;28;20115;-75
2024/03/02 00:10:25;;;;;;;40.45;20.23;;;9.70;99.90;;;;;;4992990;28;20053;-76
2024/03/02 00:12:51;;;;;;;35.83;18.35;;;9.70;99.90;;;;;;4991934;28;20142;-76
2024/03/02 00:15:39;;;;;;;34.63;17.85;;;9.80;99.90;;;;;;4993482;28;20089;-76
2024/03/02 00:18:05;;;;;;;41.97;18.98;;;9.80;99.90;;;;;;4991218;28;20506;-76
2024/03/02 00:20:31;;;;;;;37.50;18.75;;;9.80;99.90;;;;;;4993596;28;20030;-75
2024/03/02 00:23:04;;;;;;;37.58;19.38;;;9.80;99.90;;;;;;4993938;28;20117;-75
2024/03/02 00:25:42;;;;;;;39.22;18.20;;;9.80;99.90;;;;;;4991092;28;20101;-75
2024/03/02 00:28:35;;;;;;;33.85;17.25;;;9.90;99.90;;;;;;4992999;28;20026;-77
2024/03/02 00:31:04;;;;;;;38.67;18.45;;;9.90;99.90;;;;;;4995278;28;20409;-75
2024/03/02 00:33:35;;;;;;;40.65;19.55;;;9.90;99.90;;;;;;4978327;28;20096;-76
2024/03/02 00:36:03;;;;;;;43.10;21.02;;;9.90;99.90;;;;;;4994549;28;20117;-74
2024/03/02 00:38:33;;;;;;;40.88;19.45;;;9.80;99.90;;;;;;4995837;28;20040;-76
2024/03/02 00:41:08;;;;;;;35.60;17.85;;;9.80;99.90;;;;;;4991901;28;20031;-75
2024/03/02 00:43:47;;;;;;;36.65;18.98;;;9.80;99.90;;;;;;4993650;28;20081;-75
2024/03/02 00:46:17;;;;;;;33.53;17.80;;;9.80;99.90;;;;;;4992240;28;20107;-75
2024/03/02 00:49:11;;;;;;;37.67;18.98;;;9.80;99.90;;;;;;4992194;28;20022;-75
2024/03/02 00:51:38;;;;;;;41.90;19.88;;;9.80;99.90;;;;;;4995373;28;20164;-75
2024/03/02 00:54:06;;;;;;;38.55;18.65;;;9.70;99.90;;;;;;4993370;28;20045;-75
2024/03/02 00:56:33;;;;;;;33.80;17.02;;;9.70;99.90;;;;;;4991962;28;20143;-76
2024/03/02 00:58:59;;;;;;;36.35;18.40;;;9.70;99.90;;;;;;4992910;28;20038;-75
2024/03/02 01:01:25;;;;;;;32.20;16.50;;;9.70;99.90;;;;;;4990241;28;20076;-75
2024/03/02 01:03:51;;;;;;;36.80;18.65;;;9.70;99.90;;;;;;4990236;28;20477;-75
2024/03/02 01:06:17;;;;;;;37.20;19.15;;;9.70;99.90;;;;;;4991372;28;20254;-75
2024/03/02 01:08:43;;;;;;;31.13;17.15;;;9.70;99.90;;;;;;4990473;28;20026;-75
2024/03/02 01:11:09;;;;;;;37.08;19.05;;;9.70;99.90;;;;;;4989092;28;20065;-76
2024/03/02 01:13:35;;;;;;;31.10;16.38;;;9.70;99.90;;;;;;4991116;28;20136;-75
2024/03/02 01:16:01;;;;;;;31.38;17.13;;;9.70;99.90;;;;;;4990851;28;20034;-75
2024/03/02 01:18:27;;;;;;;38.70;20.17;;;9.70;99.90;;;;;;4991107;28;20057;-75
2024/03/02 01:20:55;;;;;;;31.70;17.50;;;9.70;99.90;;;;;;4992595;28;20110;-75
2024/03/02 01:23:22;;;;;;;42.25;19.58;;;9.70;99.90;;;;;;4992356;28;20488;-75
2024/03/02 01:25:48;;;;;;;38.47;19.58;;;9.70;99.90;;;;;;4989824;28;20037;-75
2024/03/02 01:28:15;;;;;;;33.80;17.35;;;9.70;99.90;;;;;;4991699;28;20022;-75
2024/03/02 01:30:41;;;;;;;32.50;16.10;;;9.70;99.90;;;;;;4993437;28;20030;-75
2024/03/02 01:33:07;;;;;;;37.65;18.00;;;9.60;99.90;;;;;;4991936;28;20044;-75
2024/03/02 01:35:34;;;;;;;36.25;18.85;;;9.60;99.90;;;;;;4993325;28;20038;-75
2024/03/02 01:38:01;;;;;;;33.33;17.65;;;9.60;99.90;;;;;;4991060;28;20092;-75
2024/03/02 01:40:28;;;;;;;35.65;18.35;;;9.60;99.90;;;;;;4990582;28;20036;-75
2024/03/02 01:42:54;;;;;;;33.78;16.92;;;9.60;99.90;;;;;;4991618;28;20539;-75
2024/03/02 01:45:21;;;;;;;37.58;19.33;;;9.60;99.90;;;;;;4993638;28;20026;-75
2024/03/02 01:47:47;;;;;;;38.83;20.10;;;9.60;99.90;;;;;;4992047;28;20149;-75
2024/03/02 01:50:13;;;;;;;39.40;20.80;;;9.60;99.90;;;;;;4992696;28;20030;-75
2024/03/02 01:52:40;;;;;;;30.60;16.05;;;9.60;99.90;;;;;;4993387;28;20092;-75
2024/03/02 01:55:07;;;;;;;33.22;16.50;;;9.60;99.90;;;;;;4989841;28;20035;-75
2024/03/02 01:57:34;;;;;;;36.40;18.40;;;9.50;99.90;;;;;;4992178;28;20034;-75
2024/03/02 02:00:00;;;;;;;35.90;17.92;;;9.50;99.90;;;;;;4993612;28;20109;-75
2024/03/02 02:02:26;;;;;;;34.70;18.13;;;9.50;99.90;;;;;;4991716;28;20041;-75
2024/03/02 02:04:52;;;;;;;40.15;19.30;;;9.60;99.90;;;;;;4993583;28;20034;-75
2024/03/02 02:07:19;;;;;;;37.53;17.45;;;9.60;99.90;;;;;;4991609;28;20117;-75
2024/03/02 02:09:45;;;;;;;37.65;20.58;;;9.60;99.90;;;;;;4990518;28;20080;-75
2024/03/02 02:12:11;;;;;;;40.17;20.50;;;9.50;99.90;;;;;;4989993;28;20037;-75
2024/03/02 02:14:37;;;;;;;42.67;19.38;;;9.50;99.90;;;;;;4994328;28;20030;-75
2024/03/02 02:17:03;;;;;;;34.88;18.75;;;9.50;99.90;;;;;;4991358;28;20062;-75
2024/03/02 02:19:29;;;;;;;36.35;18.42;;;9.50;99.90;;;;;;4992051;28;20061;-75
2024/03/02 02:21:55;;;;;;;37.70;18.42;;;9.50;99.90;;;;;;4990607;28;20034;-75
2024/03/02 02:24:21;;;;;;;34.17;17.58;;;9.50;99.90;;;;;;4990164;28;20657;-75
2024/03/02 02:26:47;;;;;;;42.75;20.23;;;9.50;99.90;;;;;;4990178;28;20044;-75
2024/03/02 02:29:12;;;;;;;37.53;18.58;;;9.50;99.90;;;;;;4993719;28;20036;-75
2024/03/02 02:31:39;;;;;;;38.10;19.73;;;9.50;99.90;;;;;;4990857;28;20049;-75
2024/03/02 02:34:05;;;;;;;40.22;19.30;;;9.50;99.90;;;;;;4992191;28;20041;-75
2024/03/02 02:36:37;;;;;;;41.10;19.50;;;9.50;99.90;;;;;;4993248;28;20693;-75
2024/03/02 02:39:04;;;;;;;37.88;18.40;;;9.60;99.90;;;;;;4989581;28;20030;-75
2024/03/02 02:41:30;;;;;;;39.30;19.50;;;9.50;99.90;;;;;;4991842;28;20022;-75
2024/03/02 02:43:56;;;;;;;36.05;17.63;;;9.50;99.90;;;;;;4992314;28;20034;-75
2024/03/02 02:46:23;;;;;;;37.33;18.90;;;9.50;99.90;;;;;;4992361;28;20042;-75
2024/03/02 02:48:50;;;;;;;47.83;21.63;;;9.40;99.90;;;;;;4992214;28;20037;-75
2024/03/02 02:51:17;;;;;;;32.67;17.40;;;9.50;99.90;;;;;;4995322;28;20029;-75
2024/03/02 02:53:43;;;;;;;38.17;19.38;;;9.50;99.90;;;;;;4992141;28;20030;-75
2024/03/02 02:56:09;;;;;;;45.58;20.70;;;9.40;99.90;;;;;;4993728;28;20034;-75
2024/03/02 02:58:35;;;;;;;36.63;18.00;;;9.50;99.90;;;;;;4996112;28;20084;-75
2024/03/02 03:01:01;;;;;;;39.75;20.30;;;9.50;99.90;;;;;;4994276;28;20104;-75
2024/03/02 03:03:27;;;;;;;38.95;18.58;;;9.50;99.90;;;;;;4995575;28;20061;-75
2024/03/02 03:05:53;;;;;;;33.58;17.92;;;9.50;99.90;;;;;;4996105;28;20030;-75
2024/03/02 03:08:19;;;;;;;37.38;18.15;;;9.40;99.90;;;;;;4991973;28;20038;-75
2024/03/02 03:10:45;;;;;;;37.25;17.13;;;9.40;99.90;;;;;;4994361;28;20121;-75
2024/03/02 03:13:11;;;;;;;34.08;16.88;;;9.40;99.90;;;;;;4997319;28;20502;-75
2024/03/02 03:15:37;;;;;;;39.13;18.95;;;9.40;99.90;;;;;;4995034;28;20061;-75
2024/03/02 03:18:07;;;;;;;43.60;20.67;;;9.40;99.90;;;;;;4995010;28;20072;-75
2024/03/02 03:20:33;;;;;;;35.72;18.25;;;9.40;99.90;;;;;;4994764;28;20048;-75
2024/03/02 03:23:00;;;;;;;37.67;19.00;;;9.50;99.90;;;;;;4993292;28;20121;-75
2024/03/02 03:25:26;;;;;;;36.05;18.40;;;9.40;99.90;;;;;;4993705;28;20092;-75
2024/03/02 03:27:52;;;;;;;34.53;18.08;;;9.50;99.90;;;;;;4996704;28;20137;-75
2024/03/02 03:30:18;;;;;;;38.40;19.23;;;9.50;99.90;;;;;;4993668;28;20125;-75
2024/03/02 03:32:45;;;;;;;36.35;17.05;;;9.50;99.90;;;;;;4995587;28;20067;-75
2024/03/02 03:35:12;;;;;;;43.35;18.67;;;9.50;99.90;;;;;;4996841;28;20025;-75
2024/03/02 03:37:38;;;;;;;36.05;19.42;;;9.50;99.90;;;;;;4992954;28;20565;-75
2024/03/02 03:40:09;;;;;;;34.17;18.17;;;9.60;99.90;;;;;;4992362;28;20105;-75
2024/03/02 03:42:36;;;;;;;40.80;20.50;;;9.60;99.90;;;;;;4996715;28;20026;-75
2024/03/02 03:45:03;;;;;;;45.10;22.00;;;9.60;99.90;;;;;;4994171;28;20030;-75
2024/03/02 03:47:30;;;;;;;38.05;19.10;;;9.60;99.90;;;;;;4992559;28;20022;-75
2024/03/02 03:49:56;;;;;;;42.50;20.25;;;9.60;99.90;;;;;;4993687;28;20027;-75
2024/03/02 03:52:22;;;;;;;38.03;20.15;;;9.70;99.90;;;;;;4993410;28;20038;-75
2024/03/02 03:54:48;;;;;;;45.67;22.67;;;9.70;99.90;;;;;;4991367;28;20038;-75
2024/03/02 03:57:13;;;;;;;39.42;21.02;;;9.70;99.90;;;;;;4995688;28;20038;-75
2024/03/02 03:59:39;;;;;;;48.03;22.08;;;9.70;99.90;;;;;;4993926;28;20029;-75
2024/03/02 04:02:05;;;;;;;44.65;22.75;;;9.80;99.90;;;;;;4994531;28;20061;-75
2024/03/02 04:04:31;;;;;;;41.92;20.83;;;9.80;99.90;;;;;;4996731;28;20057;-75
2024/03/02 04:06:57;;;;;;;46.55;23.00;;;9.80;99.90;;;;;;4992139;28;20022;-75
2024/03/02 04:09:23;;;;;;;40.90;20.40;;;9.80;99.90;;;;;;4993017;28;20021;-75
2024/03/02 04:11:48;;;;;;;42.45;21.27;;;9.80;99.90;;;;;;4994560;28;20089;-75
2024/03/02 04:14:14;;;;;;;45.63;22.08;;;9.90;99.90;;;;;;4993531;28;20473;-75
2024/03/02 04:16:40;;;;;;;39.30;20.23;;;9.90;99.90;;;;;;4994931;28;20034;-75
2024/03/02 04:19:06;;;;;;;47.65;22.85;;;9.90;99.90;;;;;;4993551;28;20054;-75
2024/03/02 04:21:32;;;;;;;43.47;22.63;;;9.90;99.90;;;;;;4991741;28;20509;-74
2024/03/02 04:23:58;;;;;;;44.30;22.08;;;9.90;99.90;;;;;;4989526;28;20100;-75
2024/03/02 04:26:25;;;;;;;49.00;23.88;;;9.90;99.90;;;;;;4994545;28;20096;-75
2024/03/02 04:28:52;;;;;;;44.75;20.63;;;9.90;99.90;;;;;;4992307;28;20101;-75
2024/03/02 04:31:18;;;;;;;45.55;23.02;;;9.90;99.90;;;;;;4992271;28;20044;-75
2024/03/02 04:33:44;;;;;;;43.45;21.08;;;9.90;99.90;;;;;;4995458;28;20147;-75
2024/03/02 04:36:10;;;;;;;49.25;23.10;;;9.90;99.90;;;;;;4993509;28;20636;-75
2024/03/02 04:38:37;;;;;;;45.70;23.25;;;9.90;99.90;;;;;;4992561;28;20045;-75
2024/03/02 04:41:06;;;;;;;46.55;23.50;;;9.90;99.90;;;;;;4993279;28;20034;-75
2024/03/02 04:43:32;;;;;;;42.30;21.95;;;10.00;99.90;;;;;;4993804;28;20208;-75
2024/03/02 04:45:58;;;;;;;44.40;22.48;;;10.00;99.90;;;;;;4992631;28;20026;-75
2024/03/02 04:48:25;;;;;;;44.53;22.63;;;9.90;99.90;;;;;;4995243;28;20052;-75
2024/03/02 04:50:51;;;;;;;48.67;23.65;;;9.90;99.90;;;;;;4992240;28;20561;-75
2024/03/02 04:53:17;;;;;;;49.13;24.15;;;9.90;99.90;;;;;;4991734;28;20037;-75
2024/03/02 04:58:08;;;;;;;44.53;22.50;;;10.00;99.90;;;;;;4993666;28;20524;-75
2024/03/02 05:00:34;;;;;;;48.55;24.77;;;10.00;99.90;;;;;;4992441;28;20038;-75
2024/03/02 05:03:01;;;;;;;45.20;23.80;;;10.00;99.90;;;;;;4995070;28;20097;-75
2024/03/02 05:05:27;;;;;;;49.25;24.42;;;9.90;99.90;;;;;;4993207;28;20024;-74
2024/03/02 05:07:53;;;;;;;57.08;25.17;;;10.00;99.90;;;;;;4991028;28;20735;-75
2024/03/02 05:10:19;;;;;;;52.92;25.45;;;9.90;99.90;;;;;;4992624;28;20545;-75
2024/03/02 05:15:12;;;;;;;49.13;23.67;;;9.90;99.90;;;;;;4993236;28;20467;-75
2024/03/02 05:17:39;;;;;;;49.42;23.27;;;9.90;99.90;;;;;;4994158;28;20022;-75
2024/03/02 05:20:09;;;;;;;45.08;21.63;;;9.90;99.90;;;;;;4991645;28;20030;-75
2024/03/02 05:22:36;;;;;;;47.05;22.80;;;9.90;99.90;;;;;;4990627;28;20034;-75
2024/03/02 05:25:03;;;;;;;46.30;22.10;;;9.90;99.90;;;;;;4990481;28;20030;-75
2024/03/02 05:27:29;;;;;;;39.90;19.77;;;9.90;99.90;;;;;;4993383;28;20497;-75
2024/03/02 05:29:55;;;;;;;42.60;20.60;;;9.90;99.90;;;;;;4992465;28;20026;-75
2024/03/02 05:32:21;;;;;;;41.70;21.52;;;9.90;99.90;;;;;;4994333;28;20170;-75
2024/03/02 05:34:47;;;;;;;44.58;22.83;;;9.90;99.90;;;;;;4992104;28;20045;-75
2024/03/02 05:37:13;;;;;;;45.80;21.08;;;9.90;99.90;;;;;;4990900;28;20038;-75
2024/03/02 05:39:39;;;;;;;45.10;22.13;;;9.90;99.90;;;;;;4992917;28;20038;-75
2024/03/02 05:42:05;;;;;;;45.38;22.60;;;9.90;99.90;;;;;;4991987;28;20470;-75
2024/03/02 05:44:32;;;;;;;39.08;19.27;;;9.90;99.90;;;;;;4991998;28;20037;-75
2024/03/02 05:46:57;;;;;;;32.63;18.10;;;9.90;99.90;;;;;;4994297;28;20029;-75
2024/03/02 05:49:23;;;;;;;43.72;21.00;;;9.90;99.90;;;;;;4992609;28;20021;-75
2024/03/02 05:51:49;;;;;;;41.17;21.67;;;9.90;99.90;;;;;;4990564;28;20741;-75
2024/03/02 05:54:15;;;;;;;46.65;22.55;;;9.90;99.90;;;;;;4991532;28;20565;-75
2024/03/02 05:56:41;;;;;;;48.13;23.27;;;9.90;99.90;;;;;;4993276;28;20030;-75
2024/03/02 05:59:12;;;;;;;43.78;22.85;;;9.90;99.90;;;;;;4991822;28;20642;-75
2024/03/02 06:01:50;;;;;;;46.28;22.50;;;9.80;99.90;;;;;;4992823;28;20064;-75
2024/03/02 06:04:16;;;;;;;46.70;23.88;;;9.80;99.90;;;;;;4992299;28;20046;-75
2024/03/02 06:06:42;;;;;;;49.45;22.05;;;9.80;99.90;;;;;;4991715;28;20393;-75
2024/03/02 06:09:12;;;;;;;48.97;22.02;;;9.80;99.90;;;;;;4993436;28;20033;-75
2024/03/02 06:11:40;;;;;;;49.03;24.75;;;9.80;99.90;;;;;;4993902;28;20030;-75
2024/03/02 06:14:07;;;;;;;44.08;21.85;;;9.80;99.90;;;;;;4992386;28;20518;-75
2024/03/02 06:16:34;;;;;;;49.70;23.00;;;9.80;99.90;;;;;;4994425;28;20088;-75
2024/03/02 06:19:00;;;;;;;45.53;22.90;;;9.80;99.90;;;;;;4992341;28;20027;-75
2024/03/02 06:21:29;;;;;;;44.42;20.77;;;9.90;99.90;;;;;;4990444;28;20030;-75
2024/03/02 06:23:56;;;;;;;45.38;22.95;;;9.90;99.90;;;;;;4993244;28;20103;-75
2024/03/02 06:26:22;;;;;;;42.70;22.20;;;9.90;99.90;;;;;;4998037;28;20061;-75
2024/03/02 06:28:48;;;;;;;44.38;20.60;;;10.00;99.90;;;;;;4997670;28;20061;-75
2024/03/02 06:31:14;;;;;;;41.78;20.52;;;10.00;99.90;;;;;;4998081;28;20076;-75
2024/03/02 06:33:41;;;;;;;42.60;19.88;;;10.00;99.90;;;;;;4997129;28;20038;-75
2024/03/02 06:36:09;;;;;;;46.33;22.10;;;10.00;99.90;;;;;;4994239;28;20064;-75
2024/03/02 06:38:35;;;;;;;44.67;20.75;;;10.00;99.90;;;;;;4995759;28;20040;-76
2024/03/02 06:41:01;;;;;;;43.95;23.40;;;10.00;99.90;;;;;;4996211;28;20034;-75
2024/03/02 06:43:27;;;;;;;49.05;23.75;;;10.00;99.90;;;;;;4994207;28;20026;-75
2024/03/02 06:45:53;;;;;;;43.35;21.42;;;10.10;99.90;;;;;;4999370;28;20037;-75
2024/03/02 06:48:22;;;;;;;47.67;21.05;;;10.10;99.90;;;;;;4996169;28;20038;-75
2024/03/02 06:50:48;;;;;;;45.60;22.30;;;10.10;99.90;;;;;;4994193;28;20052;-76
2024/03/02 06:53:17;;;;;;;49.85;22.60;;;10.20;99.90;;;;;;4996022;28;20037;-76
2024/03/02 06:55:44;;;;;;;50.70;23.50;;;10.20;99.90;;;;;;4997142;28;20026;-76
2024/03/02 06:58:12;;;;;;;50.47;23.55;;;10.20;99.90;;;;;;4997904;28;20100;-74
2024/03/02 07:00:38;;;;;;;47.92;24.60;;;10.30;99.90;;;;;;4988581;28;20089;-76
2024/03/02 07:03:04;;;;;;;51.17;24.08;;;10.30;99.90;;;;;;4994168;28;20034;-75
2024/03/02 07:05:30;;;;;;;52.65;23.90;;;10.40;99.90;;;;;;4992962;28;20033;-76
2024/03/02 07:07:56;;;;;;;48.45;23.88;;;10.40;99.90;;;;;;4992540;28;20029;-76
2024/03/02 07:10:22;;;;;;;47.50;21.77;;;10.40;99.90;;;;;;4997468;28;20133;-76
2024/03/02 07:12:47;;;;;;;45.50;21.05;;;10.50;99.90;;;;;;4995291;28;20050;-74
2024/03/02 07:17:58;;;;;;;46.80;21.83;;;10.50;99.90;;;;;;4993470;28;20023;-76
2024/03/02 07:20:23;;;;;;;46.15;21.90;;;10.50;99.90;;;;;;4994868;28;20080;-77
2024/03/02 07:22:49;;;;;;;43.28;21.58;;;10.50;99.90;;;;;;4994754;28;20031;-83
2024/03/02 07:25:15;;;;;;;43.47;21.98;;;10.60;99.90;;;;;;4996271;28;20030;-75
2024/03/02 07:27:41;;;;;;;45.95;22.65;;;10.50;99.90;;;;;;4996571;28;20036;-75
2024/03/02 07:30:08;;;;;;;50.08;22.40;;;10.50;99.90;;;;;;4998002;28;20022;-76
2024/03/02 07:32:33;;;;;;;53.40;23.60;;;10.50;99.90;;;;;;4995938;28;20580;-75
2024/03/02 07:35:01;;;;;;;51.15;23.75;;;10.50;99.90;;;;;;4994020;28;20046;-75
2024/03/02 07:37:27;;;;;;;41.03;21.02;;;10.60;99.90;;;;;;4994352;28;20029;-75
2024/03/02 07:39:53;;;;;;;49.70;23.45;;;10.50;99.90;;;;;;4996473;28;20045;-77
2024/03/02 07:42:18;;;;;;;47.03;22.13;;;10.60;99.90;;;;;;4996197;28;20038;-74
2024/03/02 07:44:45;;;;;;;45.95;21.75;;;10.50;99.90;;;;;;4997954;28;20038;-76
2024/03/02 07:47:11;;;;;;;50.70;23.45;;;10.50;99.90;;;;;;4995907;28;20061;-77
2024/03/02 07:49:37;;;;;;;43.17;22.80;;;10.60;99.90;;;;;;4995026;28;20054;-76
2024/03/02 07:52:03;;;;;;;49.03;22.52;;;10.60;99.90;;;;;;4992394;28;20056;-76
2024/03/02 07:54:29;;;;;;;43.95;21.98;;;10.60;99.90;;;;;;4994188;28;20113;-76
2024/03/02 07:56:55;;;;;;;50.78;22.52;;;10.60;99.90;;;;;;4995509;28;20140;-69
2024/03/02 07:59:21;;;;;;;49.95;22.20;;;10.60;99.90;;;;;;4996830;28;20033;-72
2024/03/02 08:01:50;;;;;;;50.88;23.38;;;10.60;99.90;;;;;;4994824;28;20091;-72
2024/03/02 08:04:16;;;;;;;54.05;22.27;;;10.50;99.90;;;;;;4993253;28;20080;-73
2024/03/02 08:06:42;;;;;;;48.05;23.70;;;10.40;99.90;;;;;;4995071;28;20026;-72
2024/03/02 08:09:10;;;;;;;46.97;23.23;;;10.50;99.90;;;;;;4995387;28;20413;-73
2024/03/02 08:11:39;;;;;;;43.70;21.83;;;10.50;99.90;;;;;;4995573;28;20034;-73
2024/03/02 08:14:05;;;;;;;48.58;23.42;;;10.50;99.90;;;;;;4995807;28;20030;-73
2024/03/02 08:16:31;;;;;;;45.90;21.38;;;10.50;99.90;;;;;;4995852;28;20041;-74
2024/03/02 08:19:00;;;;;;;47.33;23.80;;;10.50;99.90;;;;;;4993108;28;20095;-72
2024/03/02 08:21:26;;;;;;;47.30;22.17;;;10.50;99.90;;;;;;4995242;28;20034;-73
2024/03/02 08:23:52;;;;;;;42.65;22.85;;;10.60;99.90;;;;;;4996403;28;20058;-74
2024/03/02 08:26:18;;;;;;;48.38;22.25;;;10.60;99.90;;;;;;4991999;28;20034;-74
2024/03/02 08:28:43;;;;;;;45.05;22.08;;;10.60;99.90;;;;;;4996223;28;20133;-74
2024/03/02 08:31:10;;;;;;;48.72;23.08;;;10.70;99.90;;;;;;4994987;28;20060;-75
2024/03/02 08:33:36;;;;;;;50.50;24.10;;;10.70;99.90;;;;;;4993273;28;20117;-74
2024/03/02 08:36:02;;;;;;;44.67;21.52;;;10.70;99.90;;;;;;4993653;28;20110;-74
2024/03/02 08:38:28;;;;;;;52.72;23.65;;;10.70;99.90;;;;;;4996155;28;20042;-76
2024/03/02 08:40:54;;;;;;;40.45;21.70;;;10.70;99.90;;;;;;4994152;28;20572;-76
2024/03/02 08:43:22;;;;;;;43.00;20.88;;;10.70;99.90;;;;;;4995177;28;20022;-73
2024/03/02 08:45:48;;;;;;;46.97;23.63;;;10.70;99.90;;;;;;4994816;28;20100;-73
2024/03/02 08:48:15;;;;;;;46.75;22.08;;;10.70;99.90;;;;;;4992953;28;20052;-73
2024/03/02 08:50:40;;;;;;;48.97;22.27;;;10.80;99.90;;;;;;4995210;28;20060;-73
2024/03/02 08:53:06;;;;;;;46.13;22.25;;;10.80;99.90;;;;;;4994866;28;20033;-75
2024/03/02 08:55:32;;;;;;;42.10;21.15;;;10.90;99.90;;;;;;4993096;28;20030;-73
2024/03/02 08:57:58;;;;;;;45.47;21.60;;;10.80;99.90;;;;;;4993918;28;20444;-73
2024/03/02 09:00:24;;;;;;;44.72;22.05;;;10.90;99.90;;;;;;4995447;28;20030;-73
2024/03/02 09:02:50;;;;;;;45.35;22.67;;;10.90;99.90;;;;;;4990617;28;20025;-75
2024/03/02 09:05:16;;;;;;;43.05;21.88;;;10.80;99.90;;;;;;4993646;28;20053;-74
2024/03/02 09:07:42;;;;;;;41.33;22.00;;;10.90;99.90;;;;;;4992977;28;20481;-74
2024/03/02 09:10:09;;;;;;;43.67;22.70;;;10.90;99.90;;;;;;4993991;28;20029;-74
2024/03/02 09:12:35;;;;;;;49.22;22.98;;;10.90;99.90;;;;;;4994573;28;20723;-74
2024/03/02 09:15:03;;;;;;;42.95;22.50;;;11.00;99.90;;;;;;4995082;28;20509;-74
2024/03/02 09:17:29;;;;;;;51.45;23.80;;;11.10;99.90;;;;;;4991573;28;20049;-67
2024/03/02 09:19:55;;;;;;;41.92;20.92;;;11.10;99.90;;;;;;4991563;28;20033;-65
2024/03/02 09:22:21;;;;;;;47.67;22.98;;;11.10;99.90;;;;;;4995499;28;20063;-66
2024/03/02 09:24:47;;;;;;;43.03;21.60;;;11.10;99.90;;;;;;4992740;28;20037;-66
2024/03/02 09:27:13;;;;;;;40.58;20.73;;;11.10;99.90;;;;;;4994753;28;20033;-66
2024/03/02 09:29:39;;;;;;;45.78;21.92;;;11.10;99.90;;;;;;4995223;28;20038;-67
2024/03/02 09:32:06;;;;;;;42.78;21.40;;;11.20;99.90;;;;;;4991166;28;20354;-67
2024/03/02 09:34:32;;;;;;;45.72;22.00;;;11.20;99.90;;;;;;4993172;28;20030;-66
2024/03/02 09:36:58;;;;;;;41.90;22.05;;;11.30;99.90;;;;;;4994549;28;20144;-67
2024/03/02 09:39:25;;;;;;;40.95;21.02;;;11.30;99.90;;;;;;4993810;28;20040;-64
2024/03/02 09:41:51;;;;;;;39.50;20.05;;;11.30;99.90;;;;;;4993605;28;20046;-67
2024/03/02 09:44:17;;;;;;;49.13;21.13;;;11.40;99.90;;;;;;4995289;28;20080;-67
2024/03/02 09:46:43;;;;;;;45.67;21.50;;;11.40;99.90;;;;;;4992154;28;20489;-67
2024/03/02 09:49:12;;;;;;;35.83;18.48;;;11.40;99.90;;;;;;4992849;28;20030;-66
2024/03/02 09:51:40;;;;;;;42.78;20.88;;;11.40;99.90;;;;;;4994975;28;20034;-67
2024/03/02 09:54:07;;;;;;;38.55;19.58;;;11.40;99.90;;;;;;4991002;28;20035;-67
2024/03/02 09:56:33;;;;;;;42.03;21.15;;;11.50;99.90;;;;;;4994366;28;20165;-66
2024/03/02 09:58:59;;;;;;;38.20;18.65;;;11.50;99.90;;;;;;4996299;28;21660;-67
2024/03/02 10:01:25;;;;;;;41.38;19.88;;;11.50;99.90;;;;;;4996334;28;20064;-67
2024/03/02 10:03:53;;;;;;;41.95;20.17;;;11.50;99.90;;;;;;4996301;28;21244;-67
2024/03/02 10:06:20;;;;;;;43.20;20.00;;;11.50;99.90;;;;;;4998265;28;20030;-66
2024/03/02 10:08:47;;;;;;;38.97;19.25;;;11.50;99.90;;;;;;4996155;28;20045;-66
2024/03/02 10:11:30;;;;;;;40.65;19.95;;;11.60;99.90;;;;;;4994682;28;20058;-67
2024/03/02 10:14:09;;;;;;;40.88;19.52;;;11.60;99.90;;;;;;4995022;28;20097;-70
2024/03/02 10:16:42;;;;;;;38.92;19.23;;;11.60;99.90;;;;;;4997131;28;20042;-67
2024/03/02 10:19:24;;;;;;;40.83;19.58;;;11.80;99.90;;;;;;4992628;28;20037;-66
2024/03/02 10:21:51;;;;;;;39.65;18.98;;;11.90;99.90;;;;;;4992343;28;20048;-66
2024/03/02 10:24:18;;;;;;;38.35;19.90;;;12.00;99.90;;;;;;4998009;28;20136;-66
2024/03/02 10:26:45;;;;;;;36.42;19.27;;;12.10;99.90;;;;;;4996595;28;20040;-67
2024/03/02 10:29:11;;;;;;;34.75;17.13;;;12.20;99.90;;;;;;5000427;28;20157;-67
2024/03/02 10:31:38;;;;;;;35.30;17.05;;;12.30;99.90;;;;;;4994981;28;20037;-66
2024/03/02 10:34:05;;;;;;;31.90;16.98;;;12.40;99.90;;;;;;4999438;28;20570;-66
2024/03/02 10:36:31;;;;;;;34.65;18.33;;;12.40;99.90;;;;;;4996330;28;20041;-67
2024/03/02 10:38:59;;;;;;;33.58;16.42;;;12.50;99.90;;;;;;4993907;28;20028;-66
2024/03/02 10:41:26;;;;;;;32.67;16.88;;;12.60;99.90;;;;;;5001836;28;20207;-66
2024/03/02 10:43:58;;;;;;;30.92;16.05;;;12.70;99.90;;;;;;5000997;28;20031;-65
2024/03/02 10:46:31;;;;;;;29.90;15.43;;;12.90;99.90;;;;;;4991388;28;20472;-66
2024/03/02 10:49:00;;;;;;;33.80;17.63;;;12.90;99.90;;;;;;4995204;28;20096;-66
2024/03/02 10:51:33;;;;;;;28.33;14.73;;;13.00;99.90;;;;;;4994229;28;20041;-69
2024/03/02 10:54:03;;;;;;;31.38;16.38;;;13.10;99.90;;;;;;4991813;28;20038;-66
2024/03/02 10:56:34;;;;;;;33.60;16.48;;;13.20;99.90;;;;;;4997604;28;20137;-67
2024/03/02 10:59:09;;;;;;;30.27;16.30;;;13.40;99.90;;;;;;4998090;28;20041;-65
2024/03/02 11:01:38;;;;;;;31.20;15.77;;;13.60;99.90;;;;;;4999440;28;20584;-68
2024/03/02 11:04:08;;;;;;;30.75;15.35;;;13.70;99.90;;;;;;5002687;28;20501;-67
2024/03/02 11:06:38;;;;;;;27.95;15.32;;;13.80;99.90;;;;;;4992374;28;20030;-67
2024/03/02 11:09:08;;;;;;;30.10;15.40;;;14.00;99.90;;;;;;4993752;28;20106;-67
2024/03/02 11:11:41;;;;;;;25.88;14.43;;;14.40;99.90;;;;;;4998637;28;20099;-67
2024/03/02 11:14:13;;;;;;;28.52;14.85;;;15.50;99.90;;;;;;4994675;28;20030;-67
2024/03/02 11:16:41;;;;;;;26.42;13.93;;;16.90;99.90;;;;;;4996011;28;20034;-67
2024/03/02 11:19:10;;;;;;;25.42;13.65;;;17.60;99.90;;;;;;4995270;28;20030;-66
2024/03/02 11:21:37;;;;;;;28.17;15.00;;;17.80;99.90;;;;;;4996741;28;20022;-67
2024/03/02 11:24:21;;;;;;;27.17;14.05;;;18.40;99.50;;;;;;4991147;28;20734;-66
2024/03/02 11:26:48;;;;;;;28.27;14.35;;;18.60;97.30;;;;;;5000764;28;20034;-67
2024/03/02 11:29:35;;;;;;;28.13;15.13;;;18.00;98.70;;;;;;4995587;28;20030;-66
2024/03/02 11:32:06;;;;;;;24.15;13.45;;;17.50;99.90;;;;;;4995351;28;20418;-79
2024/03/02 11:34:35;;;;;;;24.15;13.77;;;16.90;99.90;;;;;;4997884;28;20045;-72
2024/03/02 11:37:02;;;;;;;24.17;12.93;;;16.30;99.90;;;;;;4991458;28;20087;-72
2024/03/02 11:39:29;;;;;;;24.40;13.60;;;16.00;99.90;;;;;;4999009;28;20038;-73
2024/03/02 11:41:58;;;;;;;21.83;13.43;;;15.80;99.90;;;;;;4997498;28;20100;-72
2024/03/02 11:44:27;;;;;;;26.73;13.18;;;15.70;99.90;;;;;;4997785;28;20120;-72
2024/03/02 11:47:07;;;;;;;24.88;13.10;;;15.60;99.90;;;;;;4996628;28;20030;-72
2024/03/02 11:49:49;;;;;;;22.38;12.38;;;15.50;99.90;;;;;;4995535;28;20026;-69
2024/03/02 11:52:17;;;;;;;22.23;12.85;;;15.50;99.90;;;;;;4995068;28;20177;-71
2024/03/02 11:54:51;;;;;;;22.35;12.38;;;15.30;99.90;;;;;;4997308;28;20042;-72
2024/03/02 11:57:19;;;;;;;18.52;11.65;;;15.40;99.90;;;;;;4999159;28;20034;-72
2024/03/02 11:59:45;;;;;;;22.95;12.55;;;15.40;99.90;;;;;;4997934;28;20088;-71
2024/03/02 12:02:19;;;;;;;24.27;12.55;;;15.50;99.90;;;;;;5001152;28;20120;-72
2024/03/02 12:04:47;;;;;;;28.65;13.60;;;15.50;99.90;;;;;;4995933;28;20644;-72
2024/03/02 12:07:22;;;;;;;21.48;11.48;;;15.50;99.90;;;;;;4995502;28;20052;-73
2024/03/02 12:09:48;;;;;;;24.65;14.02;;;15.50;99.90;;;;;;4995221;28;20026;-72
2024/03/02 12:12:20;;;;;;;24.48;12.88;;;15.50;99.90;;;;;;4994849;28;20030;-72
2024/03/02 12:14:55;;;;;;;18.70;10.80;;;15.60;99.90;;;;;;4999211;28;20038;-72
2024/03/02 12:17:21;;;;;;;21.15;12.50;;;15.60;99.90;;;;;;4996299;28;20081;-72
2024/03/02 12:19:47;;;;;;;21.83;11.40;;;15.60;99.90;;;;;;4996449;28;20033;-72
2024/03/02 12:22:13;;;;;;;23.70;11.50;;;15.70;99.90;;;;;;4988489;28;20089;-72
2024/03/02 12:24:39;;;;;;;20.10;10.70;;;15.70;99.90;;;;;;4999252;28;20030;-72
2024/03/02 12:27:06;;;;;;;18.13;9.73;;;15.80;99.90;;;;;;4991331;28;20017;-72
2024/03/02 12:29:33;;;;;;;19.35;10.70;;;15.80;99.90;;;;;;4993729;28;20070;-72
2024/03/02 12:32:01;;;;;;;18.70;10.95;;;15.60;99.90;;;;;;4996223;28;20060;-72
2024/03/02 12:34:27;;;;;;;20.00;10.50;;;15.40;99.90;;;;;;4995572;28;20030;-72
2024/03/02 12:36:53;;;;;;;18.67;9.95;;;15.30;99.90;;;;;;4991055;28;20042;-72
2024/03/02 12:39:20;;;;;;;18.02;10.48;;;15.20;99.90;;;;;;4996577;28;20092;-72